Time;durP1;ratioP1;P1;durP2;ratioP2;P2;SDS_P1;SDS_P2;PMS_P1;PMS_P2;Temp;Humidity;BMP_temperature;BMP_pressure;BME280_temperature;BME280_humidity;BME280_pressure;Samples;Min_cycle;Max_cycle;Signal;HPM_P1;HPM_P2
2022/12/20 00:00:02;;;;;;;47.50;27.17;;;6.10;99.90;;;;;;4986732;28;21362;-73
2022/12/20 00:02:28;;;;;;;42.17;28.10;;;6.20;99.90;;;;;;4990383;28;20212;-72
2022/12/20 00:04:53;;;;;;;36.90;26.57;;;6.20;99.90;;;;;;4987785;28;20449;-72
2022/12/20 00:07:19;;;;;;;41.43;26.30;;;6.20;99.90;;;;;;4990180;28;20209;-72
2022/12/20 00:09:44;;;;;;;40.97;26.23;;;6.20;99.90;;;;;;4990475;28;20178;-73
2022/12/20 00:12:10;;;;;;;33.73;25.57;;;6.20;99.90;;;;;;4989316;28;20213;-73
2022/12/20 00:14:35;;;;;;;35.27;25.23;;;6.20;99.90;;;;;;4990439;28;20751;-71
2022/12/20 00:17:01;;;;;;;33.93;24.60;;;6.20;99.90;;;;;;4986807;28;20226;-71
2022/12/20 00:19:26;;;;;;;42.60;26.67;;;6.20;99.90;;;;;;4988029;28;20200;-71
2022/12/20 00:21:52;;;;;;;42.10;25.50;;;6.20;99.90;;;;;;4991707;28;20623;-71
2022/12/20 00:24:18;;;;;;;36.30;24.03;;;6.20;99.90;;;;;;4970130;28;20208;-71
2022/12/20 00:26:43;;;;;;;41.83;26.60;;;6.20;99.90;;;;;;4992175;28;20228;-74
2022/12/20 00:29:09;;;;;;;34.40;24.83;;;6.20;99.90;;;;;;4984216;28;20251;-72
2022/12/20 00:31:34;;;;;;;34.53;25.60;;;6.20;99.90;;;;;;4990662;28;20197;-70
2022/12/20 00:34:00;;;;;;;33.87;24.27;;;6.30;99.90;;;;;;4992655;28;20195;-69
2022/12/20 00:36:28;;;;;;;40.37;25.70;;;6.30;99.90;;;;;;4995675;28;20195;-70
2022/12/20 00:38:56;;;;;;;32.13;23.10;;;6.30;99.90;;;;;;4990202;28;20432;-71
2022/12/20 00:41:24;;;;;;;30.00;22.10;;;6.30;99.90;;;;;;4987859;28;20471;-71
2022/12/20 00:43:50;;;;;;;31.60;23.30;;;6.30;99.90;;;;;;4991671;28;20451;-72
2022/12/20 00:46:18;;;;;;;33.57;22.47;;;6.30;99.90;;;;;;4991387;28;20970;-74
2022/12/20 00:48:43;;;;;;;39.90;25.13;;;6.30;99.90;;;;;;4988344;28;20448;-73
2022/12/20 00:51:12;;;;;;;37.87;25.03;;;6.30;99.90;;;;;;4987558;28;20475;-73
2022/12/20 00:53:38;;;;;;;33.90;24.70;;;6.30;99.90;;;;;;4988657;28;20276;-71
2022/12/20 00:56:05;;;;;;;33.00;24.00;;;6.30;99.90;;;;;;4987943;28;20558;-71
2022/12/20 00:58:33;;;;;;;40.23;25.03;;;6.40;99.90;;;;;;4990087;28;20519;-71
2022/12/20 01:00:58;;;;;;;31.10;21.53;;;6.40;99.90;;;;;;4980991;28;20476;-71
2022/12/20 01:03:24;;;;;;;35.97;25.57;;;6.40;99.90;;;;;;4986031;28;20832;-72
2022/12/20 01:05:51;;;;;;;35.73;23.83;;;6.40;99.90;;;;;;4987638;28;20328;-70
2022/12/20 01:08:18;;;;;;;32.30;23.87;;;6.40;99.90;;;;;;4983469;28;20494;-73
2022/12/20 01:10:43;;;;;;;37.30;23.73;;;6.40;99.90;;;;;;4988686;28;20479;-72
2022/12/20 01:13:09;;;;;;;38.43;24.50;;;6.40;99.90;;;;;;4998507;28;20464;-71
2022/12/20 01:15:34;;;;;;;40.67;24.00;;;6.50;99.90;;;;;;4987035;28;20227;-72
2022/12/20 01:18:01;;;;;;;34.17;24.23;;;6.40;99.90;;;;;;4986295;28;20295;-71
2022/12/20 01:20:26;;;;;;;34.80;25.03;;;6.50;99.90;;;;;;4993594;28;20534;-70
2022/12/20 01:22:52;;;;;;;38.10;24.43;;;6.50;99.90;;;;;;4985757;28;20299;-71
2022/12/20 01:25:18;;;;;;;33.43;24.00;;;6.50;99.90;;;;;;4985868;28;20241;-70
2022/12/20 01:27:43;;;;;;;32.50;23.90;;;6.50;99.90;;;;;;4986779;28;20228;-72
2022/12/20 01:30:09;;;;;;;34.63;23.30;;;6.50;99.90;;;;;;4985338;28;20712;-70
2022/12/20 01:32:35;;;;;;;37.27;23.93;;;6.50;99.90;;;;;;4984205;28;20220;-71
2022/12/20 01:35:01;;;;;;;32.30;23.73;;;6.50;99.90;;;;;;4989041;28;20455;-71
2022/12/20 01:37:26;;;;;;;37.40;25.93;;;6.50;99.90;;;;;;4983841;28;20193;-71
2022/12/20 01:39:52;;;;;;;30.10;21.77;;;6.50;99.90;;;;;;4987999;28;20228;-70
2022/12/20 01:42:17;;;;;;;33.87;23.20;;;6.50;99.90;;;;;;4983063;28;20205;-71
2022/12/20 01:44:43;;;;;;;29.97;21.50;;;6.50;99.90;;;;;;4993089;28;20653;-70
2022/12/20 01:47:11;;;;;;;31.93;22.13;;;6.50;99.90;;;;;;4990250;28;20213;-70
2022/12/20 01:49:42;;;;;;;33.07;22.47;;;6.50;99.90;;;;;;4993034;28;20246;-72
2022/12/20 01:52:14;;;;;;;35.47;23.10;;;6.50;99.90;;;;;;4989641;28;21334;-72
2022/12/20 01:55:01;;;;;;;31.93;22.00;;;6.50;99.90;;;;;;4992292;28;20436;-72
2022/12/20 01:57:35;;;;;;;31.90;22.90;;;6.50;99.90;;;;;;4991965;28;20443;-74
2022/12/20 02:00:01;;;;;;;30.73;22.60;;;6.50;99.90;;;;;;4993361;28;20506;-70
2022/12/20 02:02:27;;;;;;;26.87;20.83;;;6.50;99.90;;;;;;4990662;28;20465;-71
2022/12/20 02:04:53;;;;;;;27.10;21.67;;;6.50;99.90;;;;;;4988028;28;21624;-70
2022/12/20 02:07:24;;;;;;;30.50;21.93;;;6.50;99.90;;;;;;4992732;28;20264;-71
2022/12/20 02:09:51;;;;;;;29.80;21.50;;;6.50;99.90;;;;;;4996481;28;20195;-72
2022/12/20 02:12:21;;;;;;;28.87;21.77;;;6.50;99.90;;;;;;4990551;28;21231;-72
2022/12/20 02:15:02;;;;;;;30.03;21.40;;;6.50;99.90;;;;;;4988233;28;20432;-72
2022/12/20 02:17:52;;;;;;;26.60;19.90;;;6.50;99.90;;;;;;4988798;28;20443;-71
2022/12/20 02:20:28;;;;;;;27.83;19.60;;;6.50;99.90;;;;;;4987871;28;20475;-72
2022/12/20 02:23:25;;;;;;;31.63;21.37;;;6.50;99.90;;;;;;4986245;28;20456;-72
2022/12/20 02:25:53;;;;;;;31.07;20.93;;;6.50;99.90;;;;;;4991895;28;20461;-70
2022/12/20 02:28:31;;;;;;;29.17;21.27;;;6.50;99.90;;;;;;4992009;28;21389;-70
2022/12/20 02:31:02;;;;;;;31.47;19.80;;;6.50;99.90;;;;;;4987206;28;20498;-71
2022/12/20 02:33:28;;;;;;;29.37;19.70;;;6.50;99.90;;;;;;4996961;28;20751;-70
2022/12/20 02:35:54;;;;;;;29.03;20.43;;;6.50;99.90;;;;;;4989579;28;20439;-70
2022/12/20 02:38:37;;;;;;;30.37;20.87;;;6.50;99.90;;;;;;4993715;28;20944;-72
2022/12/20 02:41:13;;;;;;;24.20;18.73;;;6.50;99.90;;;;;;4986240;28;20210;-71
2022/12/20 02:46:27;;;;;;;28.30;20.00;;;6.50;99.90;;;;;;4989223;28;21036;-72
2022/12/20 02:48:57;;;;;;;30.93;19.90;;;6.50;99.90;;;;;;4989655;28;20444;-73
2022/12/20 02:51:25;;;;;;;24.20;20.80;;;6.50;99.90;;;;;;4991744;28;20506;-71
2022/12/20 02:53:51;;;;;;;24.93;18.20;;;6.50;99.90;;;;;;4987950;28;20552;-70
2022/12/20 02:56:29;;;;;;;27.30;20.33;;;6.50;99.90;;;;;;4987139;28;20440;-71
2022/12/20 02:59:13;;;;;;;29.47;20.53;;;6.50;99.90;;;;;;4992763;28;20185;-72
2022/12/20 03:01:46;;;;;;;25.27;20.10;;;6.50;99.90;;;;;;4993514;28;20931;-71
2022/12/20 03:04:12;;;;;;;28.97;19.87;;;6.50;99.90;;;;;;4992712;28;20527;-70
2022/12/20 03:06:39;;;;;;;32.00;21.63;;;6.50;99.90;;;;;;4993645;28;20460;-70
2022/12/20 03:09:04;;;;;;;30.93;21.50;;;6.50;99.90;;;;;;4986172;28;20439;-71
2022/12/20 03:11:30;;;;;;;30.17;18.70;;;6.60;99.90;;;;;;4988854;28;20452;-70
2022/12/20 03:13:56;;;;;;;29.07;19.40;;;6.60;99.90;;;;;;4993021;28;20193;-74
2022/12/20 03:16:21;;;;;;;24.97;20.60;;;6.60;99.90;;;;;;4989646;28;20194;-72
2022/12/20 03:18:47;;;;;;;29.97;20.73;;;6.60;99.90;;;;;;4990355;28;20190;-71
2022/12/20 03:21:13;;;;;;;28.60;20.20;;;6.60;99.90;;;;;;5005827;28;20291;-70
2022/12/20 03:23:38;;;;;;;29.23;20.57;;;6.60;99.90;;;;;;4996561;28;20200;-71
2022/12/20 03:26:04;;;;;;;28.30;20.17;;;6.50;99.90;;;;;;4992633;28;20274;-72
2022/12/20 03:28:30;;;;;;;32.03;21.07;;;6.60;99.90;;;;;;4998488;28;20183;-72
2022/12/20 03:30:55;;;;;;;33.00;20.80;;;6.60;99.90;;;;;;4988582;28;20178;-75
2022/12/20 03:33:21;;;;;;;30.50;21.67;;;6.60;99.90;;;;;;4993043;28;20177;-73
2022/12/20 03:35:47;;;;;;;29.33;20.30;;;6.50;99.90;;;;;;4992766;28;20716;-72
2022/12/20 03:38:12;;;;;;;34.13;21.60;;;6.50;99.90;;;;;;4996982;28;20194;-71
2022/12/20 03:40:38;;;;;;;25.43;19.83;;;6.50;99.90;;;;;;4984740;28;20427;-75
2022/12/20 03:43:03;;;;;;;32.43;21.77;;;6.50;99.90;;;;;;4989337;28;20198;-75
2022/12/20 03:45:29;;;;;;;35.53;21.23;;;6.50;99.90;;;;;;4992879;28;20260;-76
2022/12/20 03:47:55;;;;;;;33.40;21.30;;;6.50;99.90;;;;;;4990812;28;20327;-76
2022/12/20 03:50:20;;;;;;;28.20;20.80;;;6.50;99.90;;;;;;4993776;28;20280;-73
2022/12/20 03:52:46;;;;;;;33.83;21.17;;;6.50;99.90;;;;;;4994951;28;21144;-75
2022/12/20 03:55:11;;;;;;;33.40;22.40;;;6.50;99.90;;;;;;4987991;28;20177;-72
2022/12/20 03:57:38;;;;;;;29.83;22.90;;;6.50;99.90;;;;;;4995459;28;20181;-75
2022/12/20 04:00:05;;;;;;;34.37;23.70;;;6.50;99.90;;;;;;4978551;28;20268;-73
2022/12/20 04:02:31;;;;;;;31.63;23.77;;;6.50;99.90;;;;;;4994455;28;20600;-74
2022/12/20 04:04:56;;;;;;;34.47;21.87;;;6.50;99.90;;;;;;4986385;28;20824;-73
2022/12/20 04:07:22;;;;;;;36.87;23.00;;;6.50;99.90;;;;;;4986620;28;20198;-72
2022/12/20 04:09:48;;;;;;;37.20;24.23;;;6.50;99.90;;;;;;4987582;28;20172;-70
2022/12/20 04:12:13;;;;;;;34.50;23.27;;;6.40;99.90;;;;;;4989137;28;20678;-71
2022/12/20 04:14:39;;;;;;;37.57;23.77;;;6.40;99.90;;;;;;4992244;28;20177;-72
2022/12/20 04:17:05;;;;;;;40.70;24.73;;;6.40;99.90;;;;;;4988287;28;20184;-74
2022/12/20 04:19:30;;;;;;;39.53;23.87;;;6.40;99.90;;;;;;4998825;28;20989;-74
2022/12/20 04:21:59;;;;;;;31.30;23.37;;;6.40;99.90;;;;;;4989988;28;20703;-75
2022/12/20 04:24:25;;;;;;;38.53;24.97;;;6.40;99.90;;;;;;4988792;28;20239;-73
2022/12/20 04:26:50;;;;;;;34.10;23.27;;;6.40;99.90;;;;;;4989048;28;20575;-74
2022/12/20 04:29:16;;;;;;;30.80;22.47;;;6.40;99.90;;;;;;4982248;28;20587;-72
2022/12/20 04:31:41;;;;;;;33.30;22.20;;;6.40;99.90;;;;;;4989140;28;20205;-72
2022/12/20 04:34:07;;;;;;;33.90;23.67;;;6.40;99.90;;;;;;4988438;28;20948;-73
2022/12/20 04:36:33;;;;;;;34.47;23.47;;;6.40;99.90;;;;;;4995597;28;20192;-71
2022/12/20 04:38:59;;;;;;;30.50;23.30;;;6.40;99.90;;;;;;4988558;28;20188;-70
2022/12/20 04:41:25;;;;;;;38.93;24.63;;;6.40;99.90;;;;;;4990403;28;21202;-72
2022/12/20 04:43:56;;;;;;;33.43;23.13;;;6.40;99.90;;;;;;4985950;28;20216;-71
2022/12/20 04:46:23;;;;;;;35.77;23.40;;;6.40;99.90;;;;;;4991912;28;20463;-71
2022/12/20 04:48:49;;;;;;;34.77;24.43;;;6.40;99.90;;;;;;4993400;28;20847;-71
2022/12/20 04:51:16;;;;;;;42.80;25.47;;;6.40;99.90;;;;;;4988196;28;20463;-70
2022/12/20 04:53:47;;;;;;;34.57;23.80;;;6.40;99.90;;;;;;4988285;28;20213;-71
2022/12/20 04:56:26;;;;;;;38.47;25.27;;;6.40;99.90;;;;;;4976040;28;20515;-71
2022/12/20 04:58:53;;;;;;;36.67;26.33;;;6.40;99.90;;;;;;4990441;28;20423;-71
2022/12/20 05:01:19;;;;;;;35.00;24.23;;;6.40;99.90;;;;;;4993041;28;20483;-72
2022/12/20 05:03:45;;;;;;;35.23;23.13;;;6.40;99.90;;;;;;4999393;28;20436;-71
2022/12/20 05:06:11;;;;;;;30.20;22.53;;;6.40;99.90;;;;;;4992893;28;20493;-70
2022/12/20 05:08:37;;;;;;;30.53;22.70;;;6.40;99.90;;;;;;4989390;28;20451;-72
2022/12/20 05:11:04;;;;;;;30.90;22.70;;;6.50;99.90;;;;;;4989298;28;20463;-72
2022/12/20 05:13:29;;;;;;;31.43;21.27;;;6.50;99.90;;;;;;4990651;28;20454;-69
2022/12/20 05:15:56;;;;;;;34.10;23.83;;;6.50;99.90;;;;;;4991462;28;20444;-72
2022/12/20 05:18:22;;;;;;;27.77;21.70;;;6.50;99.90;;;;;;4990945;28;20188;-72
2022/12/20 05:26:15;;;;;;;31.07;22.57;;;6.50;99.90;;;;;;4993920;28;20578;-72
2022/12/20 05:26:18;;;;;;;33.20;23.07;;;6.60;99.90;;;;;;4986910;28;20513;-72
2022/12/20 05:28:43;;;;;;;31.30;21.90;;;6.60;99.90;;;;;;4994268;28;20459;-71
2022/12/20 05:31:09;;;;;;;33.00;24.17;;;6.60;99.90;;;;;;4985188;28;20215;-72
2022/12/20 05:33:34;;;;;;;28.90;22.50;;;6.60;99.90;;;;;;4993841;28;20188;-71
2022/12/20 05:36:00;;;;;;;35.13;24.10;;;6.60;99.90;;;;;;4990213;28;21015;-71
2022/12/20 05:38:25;;;;;;;29.00;21.50;;;6.60;99.90;;;;;;4991403;28;20219;-72
2022/12/20 05:40:51;;;;;;;28.47;21.47;;;6.60;99.90;;;;;;4990583;28;20182;-70
2022/12/20 05:43:18;;;;;;;31.73;21.23;;;6.60;99.90;;;;;;4987459;28;20232;-71
2022/12/20 05:45:48;;;;;;;31.60;21.10;;;6.60;99.90;;;;;;4989389;28;20296;-70
2022/12/20 05:48:15;;;;;;;31.60;21.03;;;6.60;99.90;;;;;;4988929;28;21007;-71
2022/12/20 05:50:43;;;;;;;32.13;21.10;;;6.60;99.90;;;;;;4995464;28;20426;-71
2022/12/20 05:53:13;;;;;;;30.83;22.13;;;6.60;99.90;;;;;;4992122;28;20451;-73
2022/12/20 05:55:47;;;;;;;38.57;23.63;;;6.60;99.90;;;;;;4989673;28;20486;-71
2022/12/20 05:58:13;;;;;;;34.13;23.07;;;6.60;99.90;;;;;;4988587;28;20434;-73
2022/12/20 06:00:43;;;;;;;30.47;22.20;;;6.60;99.90;;;;;;4990887;28;20432;-72
2022/12/20 06:03:10;;;;;;;35.23;22.57;;;6.60;99.90;;;;;;4990532;28;20443;-71
2022/12/20 06:05:37;;;;;;;34.80;26.10;;;6.60;99.90;;;;;;4989666;28;21068;-71
2022/12/20 06:08:04;;;;;;;37.07;26.37;;;6.70;99.90;;;;;;4991204;28;20444;-71
2022/12/20 06:10:31;;;;;;;42.03;27.47;;;6.70;99.90;;;;;;4990295;28;20436;-71
2022/12/20 06:12:56;;;;;;;31.50;22.90;;;6.70;99.90;;;;;;4990335;28;20456;-74
2022/12/20 06:15:22;;;;;;;30.00;22.33;;;6.60;99.90;;;;;;4992570;28;20432;-72
2022/12/20 06:17:47;;;;;;;28.93;21.57;;;6.70;99.90;;;;;;4983924;28;20186;-73
2022/12/20 06:20:13;;;;;;;28.13;20.90;;;6.70;99.90;;;;;;4991140;28;20221;-73
2022/12/20 06:22:39;;;;;;;26.90;21.70;;;6.70;99.90;;;;;;4998927;28;20581;-72
2022/12/20 06:25:08;;;;;;;27.73;21.13;;;6.70;99.90;;;;;;4990348;28;20331;-71
2022/12/20 06:27:34;;;;;;;30.30;21.53;;;6.70;99.90;;;;;;4989961;28;20558;-72
2022/12/20 06:29:59;;;;;;;30.60;20.33;;;6.70;99.90;;;;;;4994275;28;20427;-71
2022/12/20 06:32:25;;;;;;;23.33;19.00;;;6.70;99.90;;;;;;4994594;28;20444;-73
2022/12/20 06:34:50;;;;;;;26.20;19.90;;;6.70;99.90;;;;;;4994213;28;20181;-74
2022/12/20 06:37:16;;;;;;;27.17;20.90;;;6.70;99.90;;;;;;4991494;28;20219;-70
2022/12/20 06:39:41;;;;;;;28.80;19.00;;;6.70;99.90;;;;;;4996420;28;20169;-74
2022/12/20 06:42:07;;;;;;;23.83;17.23;;;6.70;99.90;;;;;;4996545;28;20680;-75
2022/12/20 06:44:33;;;;;;;23.87;17.87;;;6.70;99.90;;;;;;4995784;28;20180;-74
2022/12/20 06:46:58;;;;;;;24.07;17.97;;;6.70;99.90;;;;;;4992615;28;20205;-70
2022/12/20 06:49:24;;;;;;;24.03;17.50;;;6.70;99.90;;;;;;4994567;28;20180;-72
2022/12/20 06:51:49;;;;;;;29.90;20.00;;;6.70;99.90;;;;;;4994440;28;20217;-69
2022/12/20 06:54:15;;;;;;;26.33;17.57;;;6.70;99.90;;;;;;4990132;28;20185;-69
2022/12/20 06:56:40;;;;;;;34.53;20.40;;;6.70;99.90;;;;;;4996231;28;20181;-70
2022/12/20 06:59:06;;;;;;;34.60;20.93;;;6.70;99.90;;;;;;4992742;28;20225;-68
2022/12/20 07:01:31;;;;;;;32.37;20.87;;;6.70;99.90;;;;;;4991012;28;20212;-73
2022/12/20 07:03:58;;;;;;;29.20;20.53;;;6.80;99.90;;;;;;4993287;28;20274;-75
2022/12/20 07:06:23;;;;;;;28.93;19.37;;;6.80;99.90;;;;;;4994736;28;20193;-73
2022/12/20 07:08:49;;;;;;;26.37;18.10;;;6.80;99.90;;;;;;4991068;28;20550;-75
2022/12/20 07:11:14;;;;;;;28.70;20.13;;;6.80;99.90;;;;;;4988460;28;20655;-76
2022/12/20 07:13:40;;;;;;;32.37;22.13;;;6.80;99.90;;;;;;4992568;28;20687;-76
2022/12/20 07:16:06;;;;;;;28.53;20.90;;;6.80;99.90;;;;;;4994347;28;20753;-77
2022/12/20 07:18:34;;;;;;;28.60;20.90;;;6.80;99.90;;;;;;4994120;28;20188;-78
2022/12/20 07:21:00;;;;;;;27.33;19.90;;;6.80;99.90;;;;;;4995449;28;20431;-73
2022/12/20 07:23:26;;;;;;;28.67;19.50;;;6.80;99.90;;;;;;4997907;28;20432;-72
2022/12/20 07:25:56;;;;;;;23.97;17.40;;;6.80;99.90;;;;;;4994574;28;20432;-72
2022/12/20 07:28:23;;;;;;;25.57;18.57;;;6.90;99.90;;;;;;4991089;28;20235;-71
2022/12/20 07:30:49;;;;;;;28.23;18.87;;;6.90;99.90;;;;;;4993417;28;20440;-74
2022/12/20 07:33:14;;;;;;;21.37;16.70;;;6.90;99.90;;;;;;4989562;28;21325;-75
2022/12/20 07:35:40;;;;;;;26.10;17.43;;;6.90;99.90;;;;;;4998360;28;20184;-74
2022/12/20 07:38:06;;;;;;;26.67;17.40;;;7.00;99.90;;;;;;4997640;28;20181;-74
2022/12/20 07:40:31;;;;;;;24.57;17.67;;;7.00;99.90;;;;;;4992623;28;20184;-74
2022/12/20 07:42:57;;;;;;;24.73;18.33;;;7.00;99.90;;;;;;4995625;28;20915;-71
2022/12/20 07:45:22;;;;;;;23.27;16.77;;;7.10;99.90;;;;;;4991281;28;20329;-72
2022/12/20 07:47:48;;;;;;;24.87;16.77;;;7.10;99.90;;;;;;4993094;28;20289;-72
2022/12/20 07:50:14;;;;;;;21.80;16.97;;;7.10;99.90;;;;;;4996706;28;20189;-72
2022/12/20 07:52:43;;;;;;;24.90;17.67;;;7.10;99.90;;;;;;4992417;28;20998;-71
2022/12/20 07:55:10;;;;;;;23.63;17.20;;;7.20;99.90;;;;;;4991959;28;20196;-72
2022/12/20 07:57:47;;;;;;;24.37;17.57;;;7.20;99.90;;;;;;4992244;28;20943;-73
2022/12/20 08:00:14;;;;;;;23.87;16.17;;;7.20;99.90;;;;;;4988879;28;20582;-71
2022/12/20 08:02:52;;;;;;;20.43;15.90;;;7.20;99.90;;;;;;5005235;28;20460;-71
2022/12/20 08:05:18;;;;;;;23.47;17.93;;;7.30;99.90;;;;;;4992593;28;20421;-70
2022/12/20 08:07:45;;;;;;;22.70;15.57;;;7.30;99.90;;;;;;4994961;28;20494;-70
2022/12/20 08:10:15;;;;;;;21.37;14.83;;;7.30;99.90;;;;;;4991949;28;20188;-70
2022/12/20 08:12:43;;;;;;;19.87;14.77;;;7.40;99.90;;;;;;4997233;28;20448;-69
2022/12/20 08:15:09;;;;;;;19.10;13.30;;;7.40;99.90;;;;;;4983362;28;20460;-69
2022/12/20 08:17:35;;;;;;;21.67;14.57;;;7.40;99.90;;;;;;4987381;28;21777;-69
2022/12/20 08:20:01;;;;;;;17.83;14.13;;;7.40;99.90;;;;;;4993263;28;20444;-68
2022/12/20 08:22:27;;;;;;;22.10;16.83;;;7.50;99.90;;;;;;5005569;28;20803;-69
2022/12/20 08:24:52;;;;;;;21.77;14.57;;;7.50;99.90;;;;;;4986131;28;21053;-69
2022/12/20 08:27:18;;;;;;;17.93;14.10;;;7.60;99.90;;;;;;4981793;28;20213;-71
2022/12/20 08:29:43;;;;;;;16.00;12.67;;;7.60;99.90;;;;;;4991064;28;20181;-69
2022/12/20 08:32:11;;;;;;;17.97;12.13;;;7.60;99.90;;;;;;4995392;28;20263;-69
2022/12/20 08:34:36;;;;;;;15.80;12.50;;;7.70;99.90;;;;;;4994325;28;20185;-69
2022/12/20 08:37:02;;;;;;;21.37;12.63;;;7.70;99.90;;;;;;4990211;28;20444;-68
2022/12/20 08:39:28;;;;;;;15.03;11.70;;;7.70;99.90;;;;;;4993492;28;20256;-68
2022/12/20 08:41:53;;;;;;;16.80;12.03;;;7.70;99.90;;;;;;4992294;28;20547;-68
2022/12/20 08:44:19;;;;;;;16.63;13.03;;;7.80;99.90;;;;;;4990949;28;20189;-68
2022/12/20 08:46:44;;;;;;;16.43;11.03;;;7.80;99.90;;;;;;4993410;28;20224;-68
2022/12/20 08:49:10;;;;;;;19.57;12.90;;;7.70;99.90;;;;;;4993789;28;20279;-70
2022/12/20 08:51:35;;;;;;;17.80;12.20;;;7.70;99.90;;;;;;4994039;28;20197;-68
2022/12/20 08:54:01;;;;;;;19.60;11.60;;;7.80;99.90;;;;;;4989257;28;20836;-69
2022/12/20 08:56:27;;;;;;;20.07;11.83;;;7.80;99.90;;;;;;4994454;28;20182;-70
2022/12/20 08:58:53;;;;;;;19.63;12.30;;;7.90;99.90;;;;;;4994569;28;20191;-69
2022/12/20 09:01:20;;;;;;;18.97;12.83;;;7.90;99.90;;;;;;4988473;28;20456;-69
2022/12/20 09:03:47;;;;;;;15.47;12.17;;;7.90;99.90;;;;;;4992960;28;21050;-68
2022/12/20 09:06:15;;;;;;;14.07;12.47;;;7.90;99.90;;;;;;4994742;28;20867;-69
2022/12/20 09:08:41;;;;;;;19.10;12.73;;;8.00;99.90;;;;;;4993168;28;20933;-68
2022/12/20 09:11:27;;;;;;;16.30;12.43;;;7.90;99.90;;;;;;4991580;28;20485;-69
2022/12/20 09:13:54;;;;;;;17.10;11.67;;;7.90;99.90;;;;;;5007325;28;20209;-69
2022/12/20 09:16:22;;;;;;;17.20;12.60;;;7.90;99.90;;;;;;4987416;28;20450;-69
2022/12/20 09:18:52;;;;;;;16.27;12.20;;;7.90;99.90;;;;;;4994157;28;20439;-68
2022/12/20 09:21:19;;;;;;;20.53;12.77;;;8.00;99.90;;;;;;4988563;28;20456;-69
2022/12/20 09:23:45;;;;;;;17.87;11.83;;;8.00;99.90;;;;;;4992436;28;20808;-68
2022/12/20 09:26:13;;;;;;;18.53;11.83;;;8.00;99.90;;;;;;4993744;28;20465;-68
2022/12/20 09:28:39;;;;;;;18.13;12.47;;;8.10;99.90;;;;;;4991289;28;21132;-69
2022/12/20 09:31:07;;;;;;;17.50;11.93;;;8.10;99.90;;;;;;4986786;28;20452;-68
2022/12/20 09:33:34;;;;;;;16.37;12.80;;;8.00;99.90;;;;;;4986388;28;20962;-68
2022/12/20 09:36:01;;;;;;;17.73;12.47;;;8.00;99.90;;;;;;4990414;28;20528;-68
2022/12/20 09:38:27;;;;;;;18.20;12.50;;;8.00;99.90;;;;;;4960710;28;20584;-69
2022/12/20 09:40:57;;;;;;;17.20;12.20;;;8.10;99.90;;;;;;4983960;28;20436;-68
2022/12/20 09:43:23;;;;;;;18.40;13.07;;;8.10;99.90;;;;;;4988825;28;20431;-68
2022/12/20 09:45:56;;;;;;;16.70;12.13;;;8.10;99.90;;;;;;4992036;28;20436;-68
2022/12/20 09:48:29;;;;;;;15.47;12.33;;;8.10;99.90;;;;;;4989345;28;20434;-68
2022/12/20 09:51:09;;;;;;;18.60;12.00;;;8.20;99.90;;;;;;4989223;28;20443;-69
2022/12/20 09:53:46;;;;;;;14.50;12.60;;;8.20;99.90;;;;;;4990256;28;21259;-69
2022/12/20 09:56:19;;;;;;;14.83;11.50;;;8.20;99.90;;;;;;4992555;28;21006;-68
2022/12/20 09:59:10;;;;;;;15.57;11.87;;;8.20;99.90;;;;;;4987490;28;21320;-69
2022/12/20 10:01:36;;;;;;;17.83;13.10;;;8.20;99.90;;;;;;4990944;28;21113;-69
2022/12/20 10:04:05;;;;;;;16.67;12.07;;;8.10;99.90;;;;;;4993237;28;20431;-68
2022/12/20 10:06:46;;;;;;;17.67;12.30;;;8.20;99.90;;;;;;4994794;28;20475;-68
2022/12/20 10:09:53;;;;;;;15.90;12.37;;;8.20;99.90;;;;;;4988158;28;21135;-68
2022/12/20 10:12:57;;;;;;;23.90;12.77;;;8.20;99.90;;;;;;4989073;28;20517;-69
2022/12/20 10:15:31;;;;;;;17.50;12.17;;;8.20;99.90;;;;;;4981471;28;20865;-69
2022/12/20 10:18:34;;;;;;;16.97;13.03;;;8.20;99.90;;;;;;4980303;28;20443;-69
2022/12/20 10:21:55;;;;;;;16.13;12.07;;;8.20;99.90;;;;;;4993735;28;20945;-68
2022/12/20 10:24:29;;;;;;;16.87;12.83;;;8.20;99.90;;;;;;4977211;28;20610;-68
2022/12/20 10:26:55;;;;;;;18.80;13.43;;;8.30;99.90;;;;;;4993823;28;20468;-69
2022/12/20 10:29:21;;;;;;;19.60;13.70;;;8.30;99.90;;;;;;4993324;28;20998;-68
2022/12/20 10:31:58;;;;;;;18.67;12.80;;;8.40;99.90;;;;;;4993292;28;20489;-68
2022/12/20 10:34:24;;;;;;;16.87;13.10;;;8.40;99.90;;;;;;4989675;28;20668;-69
2022/12/20 10:37:11;;;;;;;18.30;13.20;;;8.40;99.90;;;;;;4994354;28;20460;-68
2022/12/20 10:39:42;;;;;;;16.97;12.80;;;8.40;99.90;;;;;;4988422;28;20231;-68
2022/12/20 10:42:37;;;;;;;20.47;12.90;;;8.50;99.90;;;;;;4994705;28;20436;-69
2022/12/20 10:45:03;;;;;;;16.67;12.57;;;8.50;99.90;;;;;;4991456;28;20432;-69
2022/12/20 10:47:40;;;;;;;16.23;12.50;;;8.50;99.90;;;;;;4991537;28;20470;-68
2022/12/20 10:50:14;;;;;;;17.23;12.67;;;8.40;99.90;;;;;;4993318;28;20451;-69
2022/12/20 10:52:40;;;;;;;14.40;12.60;;;8.40;99.90;;;;;;4986540;28;20463;-69
2022/12/20 10:55:32;;;;;;;20.10;13.80;;;8.50;99.90;;;;;;4990971;28;20428;-68
2022/12/20 10:58:05;;;;;;;17.80;13.77;;;8.50;99.90;;;;;;4977780;28;20526;-68
2022/12/20 11:00:32;;;;;;;15.23;13.10;;;8.60;99.90;;;;;;4993930;28;20450;-69
2022/12/20 11:03:19;;;;;;;18.87;13.20;;;8.60;99.90;;;;;;4998508;28;20443;-68
2022/12/20 11:05:56;;;;;;;17.00;13.33;;;8.60;99.90;;;;;;4993793;28;20443;-68
2022/12/20 11:08:23;;;;;;;15.70;12.33;;;8.70;99.90;;;;;;4994398;28;20434;-68
2022/12/20 11:10:50;;;;;;;18.30;13.97;;;8.70;99.90;;;;;;4993553;28;21247;-69
2022/12/20 11:13:22;;;;;;;18.30;15.50;;;8.70;99.90;;;;;;4996197;28;20416;-67
2022/12/20 11:15:53;;;;;;;15.37;12.60;;;8.70;99.90;;;;;;4991206;28;20424;-69
2022/12/20 11:18:40;;;;;;;20.13;12.70;;;8.70;99.90;;;;;;4992057;28;20816;-70
2022/12/20 11:21:05;;;;;;;16.77;13.30;;;8.70;99.90;;;;;;4994516;28;20463;-73
2022/12/20 11:24:09;;;;;;;15.83;13.80;;;8.70;99.90;;;;;;4994872;28;20404;-74
2022/12/20 11:26:53;;;;;;;17.37;14.70;;;8.70;99.90;;;;;;4990107;28;20355;-74
2022/12/20 11:29:29;;;;;;;19.67;12.87;;;8.80;99.90;;;;;;4993050;28;20927;-77
2022/12/20 11:32:16;;;;;;;21.92;13.18;;;8.80;99.90;;;;;;4990557;28;20522;-73
2022/12/20 11:35:23;;;;;;;18.20;13.53;;;8.80;99.90;;;;;;4993291;28;20487;-71
2022/12/20 11:38:13;;;;;;;19.70;14.37;;;8.80;99.90;;;;;;4952123;28;20434;-73
2022/12/20 11:40:53;;;;;;;18.20;13.90;;;8.90;99.90;;;;;;4989978;28;20425;-73
2022/12/20 11:43:32;;;;;;;18.20;14.37;;;8.90;99.90;;;;;;4991966;28;20557;-73
2022/12/20 11:46:27;;;;;;;16.97;13.90;;;8.90;99.90;;;;;;4992306;28;20448;-72
2022/12/20 11:48:59;;;;;;;17.83;13.60;;;8.90;99.90;;;;;;4990003;28;20781;-74
2022/12/20 11:51:47;;;;;;;16.27;12.47;;;9.00;99.90;;;;;;4985495;28;20447;-73
2022/12/20 11:54:46;;;;;;;29.60;14.70;;;8.90;99.90;;;;;;4991880;28;20475;-74
2022/12/20 11:57:53;;;;;;;20.27;14.70;;;9.00;99.90;;;;;;4987335;28;20516;-73
2022/12/20 12:00:21;;;;;;;17.60;12.67;;;9.00;99.90;;;;;;4941462;28;20445;-77
2022/12/20 12:02:57;;;;;;;17.23;13.00;;;9.10;99.90;;;;;;4987544;28;20455;-76
2022/12/20 12:05:28;;;;;;;21.03;14.27;;;9.00;99.90;;;;;;4992352;28;20550;-75
2022/12/20 12:08:12;;;;;;;18.27;14.47;;;9.00;99.90;;;;;;4993759;28;20472;-76
2022/12/20 12:11:17;;;;;;;18.53;13.50;;;9.00;99.90;;;;;;4989548;28;20444;-75
2022/12/20 12:13:50;;;;;;;19.17;13.67;;;9.10;99.90;;;;;;5007826;28;20453;-75
2022/12/20 12:16:30;;;;;;;21.00;14.70;;;9.10;99.90;;;;;;4992431;28;20432;-77
2022/12/20 12:18:58;;;;;;;21.53;15.53;;;9.10;99.90;;;;;;4992569;28;20436;-77
2022/12/20 12:21:27;;;;;;;19.43;15.70;;;9.20;99.90;;;;;;4988501;28;20466;-79
2022/12/20 12:24:00;;;;;;;17.17;13.57;;;9.20;99.90;;;;;;4992108;28;20449;-79
2022/12/20 12:26:27;;;;;;;18.83;14.43;;;9.20;99.90;;;;;;4993253;28;20420;-76
2022/12/20 12:29:08;;;;;;;20.63;14.73;;;9.10;99.90;;;;;;4990403;28;20447;-78
2022/12/20 12:32:05;;;;;;;19.83;14.33;;;9.20;99.90;;;;;;4985638;28;20447;-78
2022/12/20 12:34:49;;;;;;;21.00;14.30;;;9.20;99.90;;;;;;5005455;28;20864;-77
2022/12/20 12:37:53;;;;;;;20.30;13.40;;;9.20;99.90;;;;;;4989620;28;20460;-75
2022/12/20 12:41:02;;;;;;;21.87;14.40;;;9.20;99.90;;;;;;4988941;28;20424;-74
2022/12/20 12:43:49;;;;;;;32.57;15.50;;;9.30;99.90;;;;;;4987965;28;20449;-76
2022/12/20 12:46:32;;;;;;;24.10;15.43;;;9.30;99.90;;;;;;4983181;28;20446;-75
2022/12/20 12:49:05;;;;;;;25.10;16.57;;;9.30;99.90;;;;;;4984787;28;20742;-74
2022/12/20 12:51:39;;;;;;;22.27;16.00;;;9.40;99.90;;;;;;4986681;28;20487;-74
2022/12/20 12:54:08;;;;;;;20.53;15.50;;;9.40;99.90;;;;;;4984113;28;20617;-73
2022/12/20 12:56:48;;;;;;;22.90;14.97;;;9.40;99.90;;;;;;4980525;28;20463;-77